createdAt,value
2022-08-09T00:00:59.416Z,60.78
2022-08-09T00:04:05.903Z,60.99
2022-08-09T00:06:23.078Z,61.15
2022-08-09T00:08:52.402Z,61.29
2022-08-09T00:11:55.065Z,61.55
2022-08-09T00:14:17.343Z,61.59
2022-08-09T00:16:56.556Z,61.75
2022-08-09T00:19:24.976Z,61.52
2022-08-09T00:21:57.059Z,61.78
2022-08-09T00:24:27.566Z,62.02
2022-08-09T00:26:57.310Z,62.32
2022-08-09T00:29:39.918Z,62.61
2022-08-09T00:32:25.489Z,62.72
2022-08-09T00:34:56.126Z,62.86
2022-08-09T00:37:24.874Z,63.02
2022-08-09T00:40:13.129Z,63.16
2022-08-09T00:44:16.199Z,63.42
2022-08-09T00:45:30.598Z,63.65
2022-08-09T00:48:05.573Z,63.90
2022-08-09T00:50:37.902Z,63.95
2022-08-09T00:53:10.336Z,64.38
2022-08-09T00:56:05.534Z,64.25
2022-08-09T00:58:30.937Z,64.41
2022-08-09T01:01:00.145Z,64.45
2022-08-09T01:03:45.545Z,64.34
2022-08-09T01:06:21.022Z,64.40
2022-08-09T01:08:59.734Z,64.47
2022-08-09T01:11:42.025Z,64.67
2022-08-09T01:14:31.906Z,64.59
2022-08-09T01:17:08.875Z,64.72
2022-08-09T01:19:57.102Z,64.78
2022-08-09T01:22:59.487Z,64.73
2022-08-09T01:25:50.180Z,64.79
2022-08-09T01:28:21.209Z,64.65
2022-08-09T01:30:54.824Z,64.71
2022-08-09T01:33:30.553Z,64.69
2022-08-09T01:36:04.403Z,64.76
2022-08-09T01:38:38.564Z,64.84
2022-08-09T01:41:13.976Z,64.82
2022-08-09T01:43:51.993Z,65.06
2022-08-09T01:46:26.868Z,65.00
2022-08-09T01:49:00.270Z,64.86
2022-08-09T01:51:44.480Z,64.88
2022-08-09T01:54:25.825Z,64.79
2022-08-09T01:56:56.988Z,64.77
2022-08-09T01:59:27.188Z,64.72
2022-08-09T02:02:02.984Z,64.89
2022-08-09T02:04:33.861Z,65.27
2022-08-09T02:07:18.347Z,65.29
2022-08-09T02:10:06.810Z,65.35
2022-08-09T02:12:36.552Z,65.30
2022-08-09T02:15:11.900Z,65.37
2022-08-09T02:18:00.512Z,65.67
2022-08-09T02:20:43.379Z,65.65
2022-08-09T02:23:20.514Z,65.75
2022-08-09T02:25:55.842Z,65.81
2022-08-09T02:28:31.589Z,65.73
2022-08-09T02:31:03.124Z,65.60
2022-08-09T02:34:07.530Z,65.79
2022-08-09T02:36:32.020Z,65.95
2022-08-09T02:39:05.390Z,65.99
2022-08-09T02:41:49.258Z,65.96
2022-08-09T02:44:29.282Z,65.76
2022-08-09T02:47:04.141Z,66.00
2022-08-09T02:49:41.010Z,65.99
2022-08-09T02:52:14.917Z,66.06
2022-08-09T02:54:54.119Z,65.88
2022-08-09T02:57:25.802Z,65.73
2022-08-09T03:00:11.626Z,65.76
2022-08-09T03:02:58.411Z,66.05
2022-08-09T03:05:34.463Z,66.01
2022-08-09T03:08:07.150Z,66.13
2022-08-09T03:10:37.788Z,66.28
2022-08-09T03:13:08.322Z,66.15
2022-08-09T03:15:40.453Z,66.61
2022-08-09T03:18:31.014Z,66.65
2022-08-09T03:21:02.577Z,66.67
2022-08-09T03:23:31.386Z,66.67
2022-08-09T03:26:04.888Z,66.63
2022-08-09T03:28:35.655Z,66.77
2022-08-09T03:31:10.196Z,66.94
2022-08-09T03:33:54.481Z,66.94
2022-08-09T03:36:27.396Z,66.93
2022-08-09T03:38:56.770Z,66.93
2022-08-09T03:41:30.087Z,67.12
2022-08-09T03:44:13.361Z,67.29
2022-08-09T03:46:44.288Z,67.25
2022-08-09T03:49:19.005Z,67.24
2022-08-09T03:51:56.821Z,67.35
2022-08-09T03:54:32.625Z,67.44
2022-08-09T03:57:12.262Z,67.30
2022-08-09T03:59:53.910Z,67.48
2022-08-09T04:02:27.978Z,67.49
2022-08-09T04:04:59.156Z,67.71
2022-08-09T04:07:47.284Z,67.83
2022-08-09T04:10:29.296Z,67.74
2022-08-09T04:13:01.270Z,67.90
2022-08-09T04:16:18.380Z,68.01
2022-08-09T04:18:22.057Z,67.98
2022-08-09T04:20:51.345Z,68.06
2022-08-09T04:23:24.562Z,68.17
2022-08-09T04:25:54.567Z,68.27
2022-08-09T04:28:30.573Z,68.07
2022-08-09T04:31:09.694Z,68.30
2022-08-09T04:33:47.349Z,68.19
2022-08-09T04:36:20.749Z,68.15
2022-08-09T04:38:52.116Z,68.17
2022-08-09T04:41:23.622Z,68.23
2022-08-09T04:44:05.281Z,68.34
2022-08-09T04:46:38.055Z,68.42
2022-08-09T04:49:52.254Z,68.53
2022-08-09T04:52:12.440Z,68.30
2022-08-09T04:54:51.112Z,68.32
2022-08-09T04:57:21.511Z,68.25
2022-08-09T04:59:54.805Z,68.25
2022-08-09T05:02:23.780Z,68.15
2022-08-09T05:04:56.178Z,68.26
2022-08-09T05:07:29.124Z,68.13
2022-08-09T05:10:01.642Z,68.17
2022-08-09T05:12:33.046Z,68.08
2022-08-09T05:15:11.120Z,67.99
2022-08-09T05:18:37.604Z,67.87
2022-08-09T05:20:30.451Z,67.80
2022-08-09T05:23:54.845Z,67.64
2022-08-09T05:25:50.641Z,67.60
2022-08-09T05:28:21.016Z,67.75
2022-08-09T05:30:51.638Z,67.69
2022-08-09T05:33:26.400Z,67.55
2022-08-09T05:36:05.857Z,67.42
2022-08-09T05:38:35.689Z,67.12
2022-08-09T05:41:08.482Z,67.16
2022-08-09T05:43:45.309Z,67.13
2022-08-09T05:46:17.539Z,66.98
2022-08-09T05:48:48.754Z,66.95
2022-08-09T05:51:42.394Z,66.99
2022-08-09T05:54:17.819Z,66.86
2022-08-09T05:57:01.109Z,67.06
2022-08-09T05:59:29.519Z,67.02
2022-08-09T06:01:58.974Z,66.99
2022-08-09T06:04:34.936Z,67.08
2022-08-09T06:07:03.965Z,66.92
2022-08-09T06:09:53.940Z,67.25
2022-08-09T06:12:22.891Z,67.03
2022-08-09T06:14:54.891Z,66.87
2022-08-09T06:17:23.413Z,66.78
2022-08-09T06:19:52.094Z,66.96
2022-08-09T06:22:40.946Z,66.86
2022-08-09T06:25:31.214Z,66.96
2022-08-09T06:28:39.639Z,66.89
2022-08-09T06:31:12.493Z,66.56
2022-08-09T06:33:42.183Z,66.65
2022-08-09T06:36:27.377Z,66.68
2022-08-09T06:38:58.993Z,66.25
2022-08-09T06:42:01.249Z,66.47
2022-08-09T06:44:19.810Z,66.30
2022-08-09T06:46:50.788Z,66.48
2022-08-09T06:49:45.123Z,66.23
2022-08-09T06:52:15.979Z,65.70
2022-08-09T06:54:44.675Z,65.86
2022-08-09T06:57:13.586Z,65.78
2022-08-09T07:00:56.552Z,65.42
2022-08-09T07:02:32.079Z,65.08
2022-08-09T07:05:01.656Z,65.12
2022-08-09T07:08:00.144Z,65.11
2022-08-09T07:10:29.375Z,64.57
2022-08-09T07:12:58.560Z,64.29
2022-08-09T07:16:35.380Z,64.18
2022-08-09T07:18:15.795Z,64.18
2022-08-09T07:20:47.703Z,64.12
2022-08-09T07:23:18.232Z,63.84
2022-08-09T07:25:48.274Z,63.52
2022-08-09T07:28:28.216Z,63.21
2022-08-09T07:30:57.204Z,63.33
2022-08-09T07:33:26.224Z,62.96
2022-08-09T07:35:59.549Z,62.82
2022-08-09T07:38:31.154Z,62.35
2022-08-09T07:41:11.458Z,61.70
2022-08-09T07:43:56.024Z,61.55
2022-08-09T07:46:27.886Z,61.36
2022-08-09T07:48:59.222Z,61.50
2022-08-09T07:52:06.168Z,61.08
2022-08-09T07:54:27.517Z,60.58
2022-08-09T07:56:57.083Z,60.40
2022-08-09T07:59:34.430Z,60.19
2022-08-09T08:02:19.207Z,59.61
2022-08-09T08:04:49.247Z,59.30
2022-08-09T08:08:42.433Z,58.82
2022-08-09T08:10:11.349Z,59.00
2022-08-09T08:12:45.240Z,58.67
2022-08-09T08:15:17.706Z,58.29
2022-08-09T08:17:55.244Z,58.45
2022-08-09T08:20:32.424Z,58.38
2022-08-09T08:23:16.156Z,57.57
2022-08-09T08:25:50.141Z,57.38
2022-08-09T08:28:31.836Z,56.91
2022-08-09T08:31:14.164Z,56.52
2022-08-09T08:33:54.087Z,56.73
2022-08-09T08:36:28.738Z,55.67
2022-08-09T08:38:58.498Z,55.82
2022-08-09T08:41:50.944Z,55.30
2022-08-09T08:44:27.220Z,55.34
2022-08-09T08:47:02.613Z,55.15
2022-08-09T08:49:47.023Z,54.33
2022-08-09T08:52:52.674Z,54.17
2022-08-09T08:55:10.059Z,53.83
2022-08-09T08:57:38.772Z,53.26
2022-08-09T09:00:20.532Z,52.29
2022-08-09T09:02:52.617Z,50.39
2022-08-09T09:05:32.956Z,51.01
2022-08-09T09:08:30.963Z,51.56
2022-08-09T09:11:03.904Z,51.87
2022-08-09T09:13:55.132Z,52.50
2022-08-09T09:16:30.341Z,52.49
2022-08-09T09:22:04.297Z,51.38
2022-08-09T09:24:38.027Z,51.69
2022-08-09T09:27:09.775Z,51.70
2022-08-09T09:30:13.822Z,51.20
2022-08-09T09:32:43.140Z,50.70
2022-08-09T09:35:13.005Z,50.56
2022-08-09T09:37:46.215Z,50.35
2022-08-09T09:40:14.775Z,50.47
2022-08-09T09:42:56.365Z,50.66
2022-08-09T09:45:26.977Z,50.54
2022-08-09T09:48:02.849Z,50.15
2022-08-09T09:50:51.076Z,50.49
2022-08-09T09:53:34.398Z,51.09
2022-08-09T09:56:30.817Z,51.44
2022-08-09T09:58:58.995Z,51.95
2022-08-09T10:01:36.828Z,52.05
2022-08-09T10:04:16.262Z,52.36
2022-08-09T10:06:54.292Z,52.43
2022-08-09T10:09:24.105Z,52.04
2022-08-09T10:12:12.584Z,52.29
2022-08-09T10:14:51.736Z,51.99
2022-08-09T10:17:40.241Z,51.94
2022-08-09T10:20:27.646Z,52.26
2022-08-09T10:23:16.974Z,51.46
2022-08-09T10:26:07.795Z,51.05
2022-08-09T10:28:37.417Z,51.24
2022-08-09T10:34:09.868Z,50.75
2022-08-09T10:36:45.276Z,50.75
2022-08-09T10:39:18.399Z,49.81
2022-08-09T10:41:48.429Z,50.02
2022-08-09T10:44:19.667Z,50.05
2022-08-09T10:48:12.703Z,50.07
2022-08-09T10:50:15.074Z,49.34
2022-08-09T10:53:03.768Z,49.11
2022-08-09T10:55:55.000Z,49.31
2022-08-09T10:58:33.922Z,49.74
2022-08-09T11:03:02.734Z,49.41
2022-08-09T11:04:19.699Z,48.83
2022-08-09T11:07:58.124Z,48.85
2022-08-09T11:10:56.322Z,49.98
2022-08-09T11:13:53.977Z,49.22
2022-08-09T11:16:37.039Z,49.84
2022-08-09T11:19:10.575Z,49.80
2022-08-09T11:22:16.571Z,49.66
2022-08-09T11:25:04.821Z,50.83
2022-08-09T11:28:03.692Z,52.29
2022-08-09T11:30:34.597Z,52.82
2022-08-09T11:33:10.661Z,53.71
2022-08-09T11:35:49.491Z,54.18
2022-08-09T11:38:22.293Z,54.34
2022-08-09T11:40:58.780Z,54.45
2022-08-09T11:43:42.541Z,54.49
2022-08-09T11:46:11.462Z,54.72
2022-08-09T11:48:50.595Z,55.00
2022-08-09T11:52:59.206Z,55.31
2022-08-09T11:54:28.781Z,55.41
2022-08-09T11:58:00.824Z,56.00
2022-08-09T12:00:28.538Z,56.60
2022-08-09T12:02:58.670Z,58.09
2022-08-09T12:05:39.588Z,60.09
2022-08-09T12:08:20.048Z,62.37
2022-08-09T12:10:52.945Z,64.36
2022-08-09T12:14:07.133Z,65.48
2022-08-09T12:16:37.832Z,67.37
2022-08-09T12:19:09.899Z,68.70
2022-08-09T12:21:50.601Z,69.42
2022-08-09T12:24:24.640Z,69.67
2022-08-09T12:28:58.370Z,69.94
2022-08-09T12:30:01.629Z,70.68
2022-08-09T12:32:44.213Z,71.27
2022-08-09T12:35:19.020Z,71.47
2022-08-09T12:37:50.713Z,72.36
2022-08-09T12:40:23.350Z,72.54
2022-08-09T12:42:54.595Z,73.34
2022-08-09T12:45:33.295Z,72.88
2022-08-09T12:48:20.137Z,73.19
2022-08-09T12:50:59.596Z,73.40
2022-08-09T12:53:37.201Z,73.73
2022-08-09T12:56:16.081Z,73.21
2022-08-09T12:59:07.708Z,72.27
2022-08-09T13:01:38.268Z,71.62
2022-08-09T13:04:33.333Z,71.81
2022-08-09T13:07:15.660Z,71.08
2022-08-09T13:09:56.032Z,71.63
2022-08-09T13:12:30.642Z,71.69
2022-08-09T13:15:08.968Z,71.30
2022-08-09T13:18:02.947Z,70.42
2022-08-09T13:20:37.884Z,70.64
2022-08-09T13:24:07.021Z,71.11
2022-08-09T13:26:36.864Z,71.50
2022-08-09T13:29:13.028Z,71.80
2022-08-09T13:32:16.645Z,70.80
2022-08-09T13:34:47.969Z,70.06
2022-08-09T13:37:50.589Z,70.18
2022-08-09T13:41:54.896Z,70.41
2022-08-09T13:42:57.828Z,70.18
2022-08-09T13:45:32.189Z,69.55
2022-08-09T13:48:15.578Z,69.30
2022-08-09T13:50:44.225Z,68.67
2022-08-09T13:53:17.050Z,68.53
2022-08-09T13:55:47.829Z,68.01
2022-08-09T13:58:19.377Z,67.71
2022-08-09T14:00:52.475Z,68.23
2022-08-09T14:04:02.436Z,67.08
2022-08-09T14:06:14.698Z,66.97
2022-08-09T14:09:17.448Z,66.68
2022-08-09T14:11:47.780Z,66.03
2022-08-09T14:14:25.799Z,65.95
2022-08-09T14:16:56.667Z,65.40
2022-08-09T14:19:27.230Z,65.89
2022-08-09T14:22:02.245Z,64.84
2022-08-09T14:24:32.637Z,64.65
2022-08-09T14:27:02.402Z,65.27
2022-08-09T14:30:34.225Z,65.52
2022-08-09T14:32:20.036Z,65.14
2022-08-09T14:34:59.406Z,63.86
2022-08-09T14:37:28.740Z,63.96
2022-08-09T14:40:17.058Z,63.60
2022-08-09T14:42:45.740Z,63.41
2022-08-09T14:46:40.385Z,63.86
2022-08-09T14:48:03.509Z,63.26
2022-08-09T14:50:34.634Z,63.71
2022-08-09T14:53:11.737Z,63.27
2022-08-09T14:55:41.986Z,62.32
2022-08-09T14:58:11.633Z,62.63
2022-08-09T15:00:42.626Z,62.00
2022-08-09T15:03:20.199Z,61.77
2022-08-09T15:05:52.351Z,62.28
2022-08-09T15:08:24.323Z,62.29
2022-08-09T15:11:00.393Z,62.97
2022-08-09T15:13:47.809Z,63.14
2022-08-09T15:16:19.330Z,62.81
2022-08-09T15:18:49.475Z,63.20
2022-08-09T15:22:01.802Z,63.09
2022-08-09T15:24:12.688Z,63.38
2022-08-09T15:26:46.593Z,63.19
2022-08-09T15:30:57.719Z,63.55
2022-08-09T15:32:28.378Z,63.69
2022-08-09T15:34:59.082Z,64.08
2022-08-09T15:37:36.926Z,63.44
2022-08-09T15:40:11.803Z,64.60
2022-08-09T15:42:42.490Z,64.67
2022-08-09T15:45:14.494Z,64.06
2022-08-09T15:48:03.374Z,64.32
2022-08-09T15:50:39.198Z,64.73
2022-08-09T15:54:02.037Z,64.63
2022-08-09T15:59:37.199Z,64.22
2022-08-09T16:02:06.349Z,63.72
2022-08-09T16:04:36.448Z,63.56
2022-08-09T16:07:05.671Z,63.93
2022-08-09T16:09:57.878Z,63.72
2022-08-09T16:12:26.324Z,63.38
2022-08-09T16:14:59.532Z,63.60
2022-08-09T16:17:28.967Z,63.71
2022-08-09T16:20:04.842Z,63.73
2022-08-09T16:22:42.425Z,63.72
2022-08-09T16:25:17.072Z,64.27
2022-08-09T16:28:05.808Z,64.04
2022-08-09T16:30:34.279Z,63.88
2022-08-09T16:33:08.933Z,64.32
2022-08-09T16:35:57.270Z,64.28
2022-08-09T16:38:27.258Z,64.51
2022-08-09T16:40:55.739Z,64.88
2022-08-09T16:43:26.632Z,64.71
2022-08-09T16:45:56.059Z,65.10
2022-08-09T16:48:50.430Z,65.37
2022-08-09T16:51:14.656Z,65.17
2022-08-09T16:59:57.523Z,64.56
2022-08-09T17:02:27.706Z,64.75
2022-08-09T17:04:56.516Z,64.78
2022-08-09T17:08:46.437Z,65.31
2022-08-09T17:10:17.338Z,65.43
2022-08-09T17:12:49.466Z,64.86
2022-08-09T17:15:58.928Z,65.05
2022-08-09T17:18:08.392Z,64.87
2022-08-09T17:20:49.161Z,65.51
2022-08-09T17:23:21.368Z,65.29
2022-08-09T17:26:06.197Z,65.45
2022-08-09T17:28:36.113Z,65.48
2022-08-09T17:31:05.439Z,65.35
2022-08-09T17:33:37.711Z,65.66
2022-08-09T17:36:09.169Z,66.04
2022-08-09T17:38:57.926Z,66.28
2022-08-09T17:41:38.598Z,66.07
2022-08-09T17:44:38.830Z,65.58
2022-08-09T17:46:57.748Z,65.73
2022-08-09T17:49:26.336Z,65.88
2022-08-09T17:51:58.817Z,66.12
2022-08-09T17:54:29.778Z,65.47
2022-08-09T17:56:58.433Z,65.09
2022-08-09T18:00:58.462Z,65.18
2022-08-09T18:20:58.881Z,64.65
2022-08-09T18:22:19.241Z,64.71
2022-08-09T18:24:50.270Z,65.15
2022-08-09T18:28:02.927Z,65.57
2022-08-09T18:30:38.594Z,66.11
2022-08-09T18:32:57.339Z,66.55
2022-08-09T18:35:48.006Z,66.51
2022-08-09T18:38:14.917Z,67.57
2022-08-09T18:40:44.451Z,67.41
2022-08-09T18:43:13.276Z,67.81
2022-08-09T18:46:47.502Z,68.15
2022-08-09T18:48:33.508Z,68.50
2022-08-09T18:51:04.432Z,68.73
2022-08-09T18:53:56.173Z,68.59
2022-08-09T19:03:57.772Z,69.44
2022-08-09T19:06:23.127Z,69.68
2022-08-09T19:09:02.255Z,70.04
2022-08-09T19:11:37.506Z,70.30
2022-08-09T19:14:10.243Z,69.99
2022-08-09T19:16:50.214Z,69.85
2022-08-09T19:19:25.529Z,69.98
2022-08-09T19:22:04.896Z,70.22
2022-08-09T19:25:09.884Z,70.31
2022-08-09T19:27:25.941Z,70.49
2022-08-09T19:30:24.769Z,70.30
2022-08-09T19:32:45.893Z,70.42
2022-08-09T19:35:26.265Z,70.38
2022-08-09T19:37:57.771Z,70.37
2022-08-09T19:40:33.200Z,70.46
2022-08-09T19:43:03.620Z,70.35
2022-08-09T19:45:40.206Z,70.62
2022-08-09T19:48:11.873Z,70.91
2022-08-09T19:50:48.951Z,70.80
2022-08-09T19:53:20.822Z,70.99
2022-08-09T19:56:02.709Z,71.11
2022-08-09T19:58:35.212Z,71.44
2022-08-09T20:01:04.442Z,71.66
2022-08-09T20:20:29.379Z,68.16
2022-08-09T20:22:58.487Z,67.61
2022-08-09T20:25:28.698Z,67.27
2022-08-09T20:28:06.849Z,67.30
2022-08-09T20:30:35.482Z,66.78
2022-08-09T20:33:04.037Z,66.73
2022-08-09T20:35:35.224Z,66.56
2022-08-09T20:38:23.938Z,66.48
2022-08-09T20:40:52.516Z,66.56
2022-08-09T20:43:24.599Z,66.48
2022-08-09T20:46:01.309Z,66.57
2022-08-09T20:48:42.749Z,66.73
2022-08-09T20:51:19.629Z,66.54
2022-08-09T20:53:50.665Z,66.50
2022-08-09T20:56:21.801Z,66.62
2022-08-09T20:58:54.717Z,67.11
2022-08-09T21:01:34.887Z,66.95
2022-08-09T21:05:57.264Z,66.78
2022-08-09T21:07:14.041Z,66.79
2022-08-09T21:09:56.769Z,67.06
2022-08-09T21:12:56.426Z,67.10
2022-08-09T21:15:23.715Z,67.37
2022-08-09T21:18:21.742Z,67.46
2022-08-09T21:20:55.206Z,67.60
2022-08-09T21:23:36.081Z,67.80
2022-08-09T21:26:15.625Z,67.84
2022-08-09T21:28:55.497Z,67.81
2022-08-09T21:31:48.580Z,68.20
2022-08-09T21:34:14.253Z,68.33
2022-08-09T21:36:55.864Z,68.39
2022-08-09T21:39:28.092Z,68.58
2022-08-09T21:42:03.813Z,68.58
2022-08-09T21:44:35.424Z,68.92
2022-08-09T21:47:08.642Z,69.17
2022-08-09T21:49:42.920Z,69.06
2022-08-09T21:52:14.807Z,69.63
2022-08-09T21:54:59.439Z,69.59
2022-08-09T21:57:39.459Z,69.85
2022-08-09T22:00:25.968Z,70.07
2022-08-09T22:02:58.090Z,70.11
2022-08-09T22:05:37.089Z,70.02
2022-08-09T22:08:14.683Z,70.23
2022-08-09T22:11:00.512Z,70.20
2022-08-09T22:13:36.759Z,70.42
2022-08-09T22:16:09.082Z,70.45
2022-08-09T22:18:44.133Z,70.68
2022-08-09T22:21:24.712Z,70.79
2022-08-09T22:23:59.298Z,70.89
2022-08-09T22:26:35.262Z,70.94
2022-08-09T22:29:09.304Z,70.90
2022-08-09T22:31:50.399Z,70.96
2022-08-09T22:34:26.444Z,71.27
2022-08-09T22:36:56.169Z,71.10
2022-08-09T22:39:55.978Z,71.31
2022-08-09T22:42:21.364Z,71.37
2022-08-09T22:45:00.116Z,71.69
2022-08-09T22:48:15.364Z,71.60
2022-08-09T22:50:32.736Z,71.77
2022-08-09T22:53:04.013Z,72.06
2022-08-09T22:55:39.697Z,72.46
2022-08-09T22:58:32.888Z,72.51
2022-08-09T23:01:04.801Z,72.89
2022-08-09T23:04:03.273Z,72.86
2022-08-09T23:06:35.142Z,73.02
2022-08-09T23:09:07.528Z,72.87
2022-08-09T23:11:36.023Z,73.12
2022-08-09T23:14:10.050Z,73.41
2022-08-09T23:16:45.735Z,73.48
2022-08-09T23:19:14.158Z,73.66
2022-08-09T23:21:42.858Z,73.45
2022-08-09T23:24:11.307Z,73.54
2022-08-09T23:26:40.232Z,73.89
2022-08-09T23:29:12.942Z,73.89
2022-08-09T23:31:41.963Z,74.30
2022-08-09T23:34:10.512Z,74.30
2022-08-09T23:36:39.110Z,74.54
2022-08-09T23:39:08.007Z,74.82
2022-08-09T23:41:36.775Z,75.00
2022-08-09T23:44:05.887Z,74.96
2022-08-09T23:46:34.532Z,75.20
2022-08-09T23:49:03.522Z,75.10
2022-08-09T23:51:32.055Z,75.28
2022-08-09T23:54:02.952Z,75.60
2022-08-09T23:56:53.082Z,75.50
2022-08-09T23:59:23.560Z,75.46
